sensor_id;sensor_type;location;lat;lon;timestamp;P1;durP1;ratioP1;P2;durP2;ratioP2
41943;SDS011;27636;52.610;13.244;2022-12-07T00:02:45;18.25;;;4.82;;
41943;SDS011;27636;52.610;13.244;2022-12-07T00:07:50;15.85;;;5.75;;
41943;SDS011;27636;52.610;13.244;2022-12-07T00:12:54;22.33;;;7.10;;
41943;SDS011;27636;52.610;13.244;2022-12-07T00:17:57;18.50;;;7.07;;
41943;SDS011;27636;52.610;13.244;2022-12-07T00:23:01;15.98;;;5.55;;
41943;SDS011;27636;52.610;13.244;2022-12-07T00:28:05;19.58;;;5.72;;
41943;SDS011;27636;52.610;13.244;2022-12-07T00:33:09;23.77;;;6.50;;
41943;SDS011;27636;52.610;13.244;2022-12-07T00:38:14;17.23;;;6.32;;
41943;SDS011;27636;52.610;13.244;2022-12-07T00:43:17;15.35;;;5.28;;
41943;SDS011;27636;52.610;13.244;2022-12-07T00:48:21;16.52;;;5.88;;
41943;SDS011;27636;52.610;13.244;2022-12-07T00:53:26;18.88;;;7.30;;
41943;SDS011;27636;52.610;13.244;2022-12-07T01:03:34;16.45;;;5.57;;
41943;SDS011;27636;52.610;13.244;2022-12-07T01:08:39;20.35;;;6.07;;
41943;SDS011;27636;52.610;13.244;2022-12-07T01:13:43;11.48;;;5.68;;
41943;SDS011;27636;52.610;13.244;2022-12-07T01:18:48;19.67;;;6.72;;
41943;SDS011;27636;52.610;13.244;2022-12-07T01:23:53;16.95;;;7.07;;
41943;SDS011;27636;52.610;13.244;2022-12-07T01:28:59;23.08;;;7.15;;
41943;SDS011;27636;52.610;13.244;2022-12-07T01:34:03;23.92;;;6.93;;
41943;SDS011;27636;52.610;13.244;2022-12-07T01:39:08;17.40;;;5.32;;
41943;SDS011;27636;52.610;13.244;2022-12-07T01:44:18;19.35;;;6.95;;
41943;SDS011;27636;52.610;13.244;2022-12-07T01:49:28;19.90;;;6.97;;
41943;SDS011;27636;52.610;13.244;2022-12-07T01:54:36;26.88;;;6.72;;
41943;SDS011;27636;52.610;13.244;2022-12-07T04:21:51;32.25;;;10.18;;
41943;SDS011;27636;52.610;13.244;2022-12-07T04:26:55;29.55;;;8.70;;
41943;SDS011;27636;52.610;13.244;2022-12-07T04:31:58;43.78;;;12.60;;
41943;SDS011;27636;52.610;13.244;2022-12-07T04:37:03;35.40;;;11.07;;
41943;SDS011;27636;52.610;13.244;2022-12-07T04:42:06;36.38;;;11.63;;
41943;SDS011;27636;52.610;13.244;2022-12-07T04:47:10;33.28;;;11.35;;
41943;SDS011;27636;52.610;13.244;2022-12-07T04:52:15;35.15;;;11.48;;
41943;SDS011;27636;52.610;13.244;2022-12-07T04:57:18;41.25;;;11.35;;
41943;SDS011;27636;52.610;13.244;2022-12-07T05:02:21;34.25;;;11.77;;
41943;SDS011;27636;52.610;13.244;2022-12-07T05:07:26;36.72;;;11.52;;
41943;SDS011;27636;52.610;13.244;2022-12-07T05:12:29;47.72;;;14.45;;
41943;SDS011;27636;52.610;13.244;2022-12-07T05:17:33;37.60;;;14.05;;
41943;SDS011;27636;52.610;13.244;2022-12-07T05:22:37;36.40;;;13.32;;
41943;SDS011;27636;52.610;13.244;2022-12-07T05:27:40;34.90;;;12.60;;
41943;SDS011;27636;52.610;13.244;2022-12-07T05:32:44;38.92;;;13.20;;
41943;SDS011;27636;52.610;13.244;2022-12-07T05:37:48;47.00;;;15.00;;
41943;SDS011;27636;52.610;13.244;2022-12-07T05:42:51;59.75;;;16.48;;
41943;SDS011;27636;52.610;13.244;2022-12-07T05:47:55;51.70;;;14.82;;
41943;SDS011;27636;52.610;13.244;2022-12-07T05:52:59;51.10;;;14.77;;
41943;SDS011;27636;52.610;13.244;2022-12-07T05:58:02;45.37;;;14.53;;
41943;SDS011;27636;52.610;13.244;2022-12-07T06:03:25;43.90;;;12.18;;
41943;SDS011;27636;52.610;13.244;2022-12-07T06:08:29;34.50;;;13.68;;
41943;SDS011;27636;52.610;13.244;2022-12-07T06:13:33;38.50;;;14.73;;
41943;SDS011;27636;52.610;13.244;2022-12-07T06:18:37;33.47;;;12.27;;
41943;SDS011;27636;52.610;13.244;2022-12-07T06:23:42;34.17;;;13.02;;
41943;SDS011;27636;52.610;13.244;2022-12-07T06:28:46;36.93;;;13.43;;
41943;SDS011;27636;52.610;13.244;2022-12-07T06:33:49;39.10;;;13.60;;
41943;SDS011;27636;52.610;13.244;2022-12-07T06:38:54;39.83;;;12.20;;
41943;SDS011;27636;52.610;13.244;2022-12-07T06:43:57;31.90;;;9.45;;
41943;SDS011;27636;52.610;13.244;2022-12-07T06:49:01;41.30;;;13.05;;
41943;SDS011;27636;52.610;13.244;2022-12-07T06:54:06;37.22;;;11.23;;
41943;SDS011;27636;52.610;13.244;2022-12-07T06:59:10;55.80;;;12.68;;
41943;SDS011;27636;52.610;13.244;2022-12-07T07:04:13;37.42;;;11.98;;
41943;SDS011;27636;52.610;13.244;2022-12-07T07:09:17;34.67;;;10.38;;
41943;SDS011;27636;52.610;13.244;2022-12-07T07:19:25;34.92;;;11.73;;
41943;SDS011;27636;52.610;13.244;2022-12-07T07:24:29;31.00;;;9.73;;
41943;SDS011;27636;52.610;13.244;2022-12-07T07:29:33;33.17;;;11.40;;
41943;SDS011;27636;52.610;13.244;2022-12-07T07:34:36;29.55;;;11.20;;
41943;SDS011;27636;52.610;13.244;2022-12-07T07:39:41;26.50;;;11.15;;
41943;SDS011;27636;52.610;13.244;2022-12-07T07:44:44;27.25;;;8.35;;
41943;SDS011;27636;52.610;13.244;2022-12-07T07:49:48;25.48;;;8.55;;
41943;SDS011;27636;52.610;13.244;2022-12-07T07:54:52;35.92;;;8.55;;
41943;SDS011;27636;52.610;13.244;2022-12-07T07:59:56;16.63;;;7.18;;
41943;SDS011;27636;52.610;13.244;2022-12-07T08:04:59;18.20;;;6.60;;
41943;SDS011;27636;52.610;13.244;2022-12-07T08:10:04;14.00;;;7.07;;
41943;SDS011;27636;52.610;13.244;2022-12-07T08:15:10;19.80;;;7.72;;
41943;SDS011;27636;52.610;13.244;2022-12-07T08:20:14;13.23;;;5.10;;
41943;SDS011;27636;52.610;13.244;2022-12-07T08:25:18;18.70;;;5.40;;
41943;SDS011;27636;52.610;13.244;2022-12-07T08:35:26;11.10;;;4.82;;
41943;SDS011;27636;52.610;13.244;2022-12-07T08:40:31;11.48;;;4.95;;
41943;SDS011;27636;52.610;13.244;2022-12-07T08:45:35;20.88;;;4.93;;
41943;SDS011;27636;52.610;13.244;2022-12-07T08:50:38;13.55;;;4.35;;
41943;SDS011;27636;52.610;13.244;2022-12-07T08:55:52;13.15;;;5.35;;
41943;SDS011;27636;52.610;13.244;2022-12-07T09:00:55;15.57;;;3.58;;
41943;SDS011;27636;52.610;13.244;2022-12-07T09:05:59;11.27;;;4.75;;
41943;SDS011;27636;52.610;13.244;2022-12-07T09:11:04;9.73;;;3.90;;
41943;SDS011;27636;52.610;13.244;2022-12-07T09:16:08;12.57;;;3.95;;
41943;SDS011;27636;52.610;13.244;2022-12-07T09:21:11;7.45;;;3.55;;
41943;SDS011;27636;52.610;13.244;2022-12-07T09:26:16;10.23;;;3.67;;
41943;SDS011;27636;52.610;13.244;2022-12-07T09:31:19;10.43;;;3.67;;
41943;SDS011;27636;52.610;13.244;2022-12-07T09:36:27;10.85;;;2.78;;
41943;SDS011;27636;52.610;13.244;2022-12-07T09:41:33;6.78;;;2.97;;
41943;SDS011;27636;52.610;13.244;2022-12-07T09:46:41;9.63;;;3.67;;
41943;SDS011;27636;52.610;13.244;2022-12-07T09:51:46;9.30;;;3.38;;
41943;SDS011;27636;52.610;13.244;2022-12-07T09:56:52;8.20;;;2.85;;
41943;SDS011;27636;52.610;13.244;2022-12-07T10:01:55;7.60;;;3.45;;
41943;SDS011;27636;52.610;13.244;2022-12-07T10:07:26;6.72;;;2.35;;
41943;SDS011;27636;52.610;13.244;2022-12-07T10:12:30;8.07;;;4.20;;
41943;SDS011;27636;52.610;13.244;2022-12-07T10:17:55;9.65;;;3.03;;
41943;SDS011;27636;52.610;13.244;2022-12-07T10:28:16;5.60;;;2.77;;
41943;SDS011;27636;52.610;13.244;2022-12-07T10:33:27;5.97;;;2.67;;
41943;SDS011;27636;52.610;13.244;2022-12-07T10:38:32;12.38;;;3.80;;
41943;SDS011;27636;52.610;13.244;2022-12-07T10:43:37;6.93;;;3.70;;
41943;SDS011;27636;52.610;13.244;2022-12-07T10:48:52;5.57;;;2.95;;
41943;SDS011;27636;52.610;13.244;2022-12-07T10:54:04;6.38;;;3.45;;
41943;SDS011;27636;52.610;13.244;2022-12-07T11:04:51;8.02;;;3.60;;
41943;SDS011;27636;52.610;13.244;2022-12-07T11:10:05;6.70;;;3.22;;
41943;SDS011;27636;52.610;13.244;2022-12-07T11:15:18;8.50;;;2.45;;
41943;SDS011;27636;52.610;13.244;2022-12-07T11:20:34;5.95;;;2.80;;
41943;SDS011;27636;52.610;13.244;2022-12-07T11:25:47;7.78;;;3.30;;
41943;SDS011;27636;52.610;13.244;2022-12-07T11:30:59;9.93;;;3.25;;
41943;SDS011;27636;52.610;13.244;2022-12-07T11:36:14;8.05;;;3.45;;
41943;SDS011;27636;52.610;13.244;2022-12-07T11:41:36;8.15;;;2.83;;
41943;SDS011;27636;52.610;13.244;2022-12-07T11:46:46;6.03;;;3.08;;
41943;SDS011;27636;52.610;13.244;2022-12-07T11:51:54;6.30;;;3.00;;
41943;SDS011;27636;52.610;13.244;2022-12-07T11:57:04;10.75;;;2.92;;
41943;SDS011;27636;52.610;13.244;2022-12-07T12:02:22;8.45;;;3.47;;
41943;SDS011;27636;52.610;13.244;2022-12-07T12:07:35;6.63;;;3.17;;
41943;SDS011;27636;52.610;13.244;2022-12-07T12:13:06;13.43;;;3.90;;
41943;SDS011;27636;52.610;13.244;2022-12-07T12:18:58;7.03;;;2.92;;
41943;SDS011;27636;52.610;13.244;2022-12-07T12:24:14;5.60;;;2.63;;
41943;SDS011;27636;52.610;13.244;2022-12-07T12:29:22;8.55;;;3.85;;
41943;SDS011;27636;52.610;13.244;2022-12-07T12:34:32;12.10;;;3.42;;
41943;SDS011;27636;52.610;13.244;2022-12-07T12:39:40;10.88;;;2.97;;
41943;SDS011;27636;52.610;13.244;2022-12-07T12:45:24;6.83;;;2.17;;
41943;SDS011;27636;52.610;13.244;2022-12-07T12:50:32;4.00;;;2.28;;
41943;SDS011;27636;52.610;13.244;2022-12-07T13:06:48;7.90;;;3.45;;
41943;SDS011;27636;52.610;13.244;2022-12-07T13:11:56;6.38;;;1.92;;
41943;SDS011;27636;52.610;13.244;2022-12-07T13:17:03;4.30;;;1.85;;
41943;SDS011;27636;52.610;13.244;2022-12-07T13:27:51;5.10;;;2.15;;
41943;SDS011;27636;52.610;13.244;2022-12-07T13:32:59;12.50;;;3.63;;
41943;SDS011;27636;52.610;13.244;2022-12-07T13:38:15;7.63;;;2.10;;
41943;SDS011;27636;52.610;13.244;2022-12-07T13:43:25;3.30;;;1.30;;
41943;SDS011;27636;52.610;13.244;2022-12-07T13:48:30;3.65;;;1.90;;
41943;SDS011;27636;52.610;13.244;2022-12-07T13:53:36;13.65;;;2.58;;
41943;SDS011;27636;52.610;13.244;2022-12-07T13:58:49;6.25;;;1.90;;
41943;SDS011;27636;52.610;13.244;2022-12-07T14:03:52;7.40;;;1.65;;
41943;SDS011;27636;52.610;13.244;2022-12-07T14:09:07;5.40;;;2.38;;
41943;SDS011;27636;52.610;13.244;2022-12-07T14:14:21;6.35;;;2.33;;
41943;SDS011;27636;52.610;13.244;2022-12-07T14:19:49;4.47;;;1.95;;
41943;SDS011;27636;52.610;13.244;2022-12-07T14:25:00;5.13;;;2.45;;
41943;SDS011;27636;52.610;13.244;2022-12-07T14:30:15;5.32;;;1.88;;
41943;SDS011;27636;52.610;13.244;2022-12-07T14:35:20;6.53;;;2.63;;
41943;SDS011;27636;52.610;13.244;2022-12-07T14:40:25;4.45;;;1.98;;
41943;SDS011;27636;52.610;13.244;2022-12-07T14:45:30;4.60;;;2.40;;
41943;SDS011;27636;52.610;13.244;2022-12-07T14:50:34;5.32;;;1.48;;
41943;SDS011;27636;52.610;13.244;2022-12-07T14:55:42;5.28;;;1.67;;
41943;SDS011;27636;52.610;13.244;2022-12-07T15:00:45;5.18;;;1.90;;
41943;SDS011;27636;52.610;13.244;2022-12-07T15:05:50;10.43;;;2.78;;
41943;SDS011;27636;52.610;13.244;2022-12-07T15:10:54;10.27;;;2.50;;
41943;SDS011;27636;52.610;13.244;2022-12-07T15:15:57;5.97;;;2.97;;
41943;SDS011;27636;52.610;13.244;2022-12-07T15:21:02;16.33;;;5.80;;
41943;SDS011;27636;52.610;13.244;2022-12-07T15:26:07;14.07;;;5.07;;
41943;SDS011;27636;52.610;13.244;2022-12-07T15:31:12;17.05;;;5.53;;
41943;SDS011;27636;52.610;13.244;2022-12-07T15:36:36;10.50;;;3.38;;
41943;SDS011;27636;52.610;13.244;2022-12-07T15:41:41;10.95;;;3.67;;
41943;SDS011;27636;52.610;13.244;2022-12-07T15:46:44;10.97;;;2.87;;
41943;SDS011;27636;52.610;13.244;2022-12-07T15:51:47;8.40;;;1.88;;
41943;SDS011;27636;52.610;13.244;2022-12-07T15:56:52;9.70;;;1.20;;
41943;SDS011;27636;52.610;13.244;2022-12-07T16:01:57;6.43;;;3.25;;
41943;SDS011;27636;52.610;13.244;2022-12-07T16:07:00;5.50;;;2.08;;
41943;SDS011;27636;52.610;13.244;2022-12-07T16:12:05;10.88;;;2.30;;
41943;SDS011;27636;52.610;13.244;2022-12-07T16:17:09;8.80;;;1.90;;
41943;SDS011;27636;52.610;13.244;2022-12-07T16:22:13;11.88;;;2.53;;
41943;SDS011;27636;52.610;13.244;2022-12-07T16:27:18;9.48;;;2.08;;
41943;SDS011;27636;52.610;13.244;2022-12-07T16:32:21;5.05;;;2.45;;
41943;SDS011;27636;52.610;13.244;2022-12-07T16:37:24;13.05;;;3.10;;
41943;SDS011;27636;52.610;13.244;2022-12-07T16:42:30;10.52;;;2.10;;
41943;SDS011;27636;52.610;13.244;2022-12-07T16:47:36;8.20;;;2.40;;
41943;SDS011;27636;52.610;13.244;2022-12-07T16:57:45;4.32;;;1.95;;
41943;SDS011;27636;52.610;13.244;2022-12-07T17:02:48;4.15;;;1.83;;
41943;SDS011;27636;52.610;13.244;2022-12-07T17:07:51;7.85;;;3.00;;
41943;SDS011;27636;52.610;13.244;2022-12-07T17:12:56;7.28;;;2.90;;
41943;SDS011;27636;52.610;13.244;2022-12-07T17:17:59;8.05;;;2.20;;
41943;SDS011;27636;52.610;13.244;2022-12-07T17:23:02;6.22;;;2.53;;
41943;SDS011;27636;52.610;13.244;2022-12-07T17:28:07;11.30;;;4.53;;
41943;SDS011;27636;52.610;13.244;2022-12-07T17:33:10;14.20;;;6.55;;
41943;SDS011;27636;52.610;13.244;2022-12-07T17:38:15;33.23;;;14.13;;
41943;SDS011;27636;52.610;13.244;2022-12-07T17:43:20;16.88;;;3.90;;
41943;SDS011;27636;52.610;13.244;2022-12-07T17:48:23;7.30;;;3.65;;
41943;SDS011;27636;52.610;13.244;2022-12-07T17:53:26;5.88;;;2.25;;
41943;SDS011;27636;52.610;13.244;2022-12-07T17:58:32;5.32;;;2.70;;
41943;SDS011;27636;52.610;13.244;2022-12-07T18:03:35;5.65;;;2.53;;
41943;SDS011;27636;52.610;13.244;2022-12-07T18:08:40;6.78;;;1.75;;
41943;SDS011;27636;52.610;13.244;2022-12-07T18:13:44;22.92;;;4.60;;
41943;SDS011;27636;52.610;13.244;2022-12-07T18:18:48;26.10;;;9.50;;
41943;SDS011;27636;52.610;13.244;2022-12-07T18:23:56;19.92;;;9.23;;
41943;SDS011;27636;52.610;13.244;2022-12-07T18:29:06;14.80;;;5.13;;
41943;SDS011;27636;52.610;13.244;2022-12-07T18:34:11;30.42;;;11.13;;
41943;SDS011;27636;52.610;13.244;2022-12-07T18:39:15;5.78;;;3.20;;
41943;SDS011;27636;52.610;13.244;2022-12-07T18:49:25;6.15;;;2.67;;
41943;SDS011;27636;52.610;13.244;2022-12-07T18:54:28;5.78;;;2.75;;
41943;SDS011;27636;52.610;13.244;2022-12-07T18:59:33;7.97;;;3.20;;
41943;SDS011;27636;52.610;13.244;2022-12-07T19:04:48;4.75;;;2.38;;
41943;SDS011;27636;52.610;13.244;2022-12-07T19:09:52;19.17;;;3.00;;
41943;SDS011;27636;52.610;13.244;2022-12-07T19:14:57;5.47;;;2.92;;
41943;SDS011;27636;52.610;13.244;2022-12-07T19:20:01;12.75;;;3.20;;
41943;SDS011;27636;52.610;13.244;2022-12-07T19:25:07;5.28;;;2.40;;
41943;SDS011;27636;52.610;13.244;2022-12-07T19:30:13;11.45;;;2.95;;
41943;SDS011;27636;52.610;13.244;2022-12-07T19:35:19;22.90;;;3.47;;
41943;SDS011;27636;52.610;13.244;2022-12-07T19:40:22;7.88;;;2.35;;
41943;SDS011;27636;52.610;13.244;2022-12-07T19:45:28;22.08;;;2.85;;
41943;SDS011;27636;52.610;13.244;2022-12-07T19:50:34;4.20;;;1.73;;
41943;SDS011;27636;52.610;13.244;2022-12-07T19:55:38;4.80;;;2.25;;
41943;SDS011;27636;52.610;13.244;2022-12-07T20:00:43;8.50;;;3.17;;
41943;SDS011;27636;52.610;13.244;2022-12-07T20:05:46;5.75;;;3.05;;
41943;SDS011;27636;52.610;13.244;2022-12-07T20:10:50;4.13;;;1.88;;
41943;SDS011;27636;52.610;13.244;2022-12-07T20:15:55;6.85;;;2.30;;
41943;SDS011;27636;52.610;13.244;2022-12-07T20:21:19;3.90;;;2.03;;
41943;SDS011;27636;52.610;13.244;2022-12-07T20:26:22;4.85;;;2.38;;
41943;SDS011;27636;52.610;13.244;2022-12-07T20:31:27;5.03;;;3.03;;
41943;SDS011;27636;52.610;13.244;2022-12-07T20:41:35;13.77;;;2.85;;
41943;SDS011;27636;52.610;13.244;2022-12-07T20:46:58;7.95;;;2.58;;
41943;SDS011;27636;52.610;13.244;2022-12-07T20:52:02;12.52;;;2.95;;
41943;SDS011;27636;52.610;13.244;2022-12-07T20:57:06;8.73;;;3.67;;
41943;SDS011;27636;52.610;13.244;2022-12-07T21:02:11;9.88;;;2.67;;
41943;SDS011;27636;52.610;13.244;2022-12-07T21:07:15;7.57;;;3.17;;
41943;SDS011;27636;52.610;13.244;2022-12-07T21:12:18;5.25;;;2.33;;
41943;SDS011;27636;52.610;13.244;2022-12-07T21:17:23;7.43;;;3.58;;
41943;SDS011;27636;52.610;13.244;2022-12-07T21:22:27;10.55;;;3.42;;
41943;SDS011;27636;52.610;13.244;2022-12-07T21:27:30;6.95;;;3.17;;
41943;SDS011;27636;52.610;13.244;2022-12-07T21:32:36;6.53;;;2.97;;
41943;SDS011;27636;52.610;13.244;2022-12-07T21:37:39;6.60;;;3.17;;
41943;SDS011;27636;52.610;13.244;2022-12-07T21:42:43;6.60;;;2.50;;
41943;SDS011;27636;52.610;13.244;2022-12-07T21:47:48;9.27;;;3.42;;
41943;SDS011;27636;52.610;13.244;2022-12-07T21:52:51;5.20;;;2.42;;
41943;SDS011;27636;52.610;13.244;2022-12-07T21:57:54;8.63;;;3.58;;
41943;SDS011;27636;52.610;13.244;2022-12-07T22:02:59;7.53;;;3.53;;
41943;SDS011;27636;52.610;13.244;2022-12-07T22:08:02;8.30;;;3.15;;
41943;SDS011;27636;52.610;13.244;2022-12-07T22:13:07;7.22;;;3.13;;
41943;SDS011;27636;52.610;13.244;2022-12-07T22:18:12;14.60;;;4.40;;
41943;SDS011;27636;52.610;13.244;2022-12-07T22:23:15;10.17;;;4.77;;
41943;SDS011;27636;52.610;13.244;2022-12-07T22:28:18;10.27;;;3.30;;
41943;SDS011;27636;52.610;13.244;2022-12-07T22:33:23;13.73;;;4.55;;
41943;SDS011;27636;52.610;13.244;2022-12-07T22:38:26;8.35;;;3.65;;
41943;SDS011;27636;52.610;13.244;2022-12-07T22:43:30;9.85;;;3.63;;
41943;SDS011;27636;52.610;13.244;2022-12-07T22:48:34;8.40;;;4.35;;
41943;SDS011;27636;52.610;13.244;2022-12-07T22:53:38;7.70;;;3.83;;
41943;SDS011;27636;52.610;13.244;2022-12-07T22:58:41;9.15;;;3.72;;
41943;SDS011;27636;52.610;13.244;2022-12-07T23:03:46;8.98;;;3.30;;
41943;SDS011;27636;52.610;13.244;2022-12-07T23:08:49;9.73;;;4.20;;
41943;SDS011;27636;52.610;13.244;2022-12-07T23:13:53;10.52;;;2.95;;
41943;SDS011;27636;52.610;13.244;2022-12-07T23:18:57;7.88;;;3.42;;
41943;SDS011;27636;52.610;13.244;2022-12-07T23:24:00;10.98;;;6.05;;
41943;SDS011;27636;52.610;13.244;2022-12-07T23:29:04;13.27;;;3.00;;
41943;SDS011;27636;52.610;13.244;2022-12-07T23:34:09;12.70;;;3.90;;
41943;SDS011;27636;52.610;13.244;2022-12-07T23:39:12;7.75;;;2.85;;
41943;SDS011;27636;52.610;13.244;2022-12-07T23:44:15;8.30;;;4.03;;
41943;SDS011;27636;52.610;13.244;2022-12-07T23:49:20;9.15;;;4.20;;
41943;SDS011;27636;52.610;13.244;2022-12-07T23:54:23;7.00;;;3.23;;
41943;SDS011;27636;52.610;13.244;2022-12-07T23:59:26;8.85;;;3.55;;
